sensor_id;sensor_type;location;lat;lon;timestamp;P1;durP1;ratioP1;P2;durP2;ratioP2
40955;SDS011;26687;48.254;11.454;2022-12-18T00:02:38;35.13;;;28.63;;
40955;SDS011;26687;48.254;11.454;2022-12-18T00:05:45;33.73;;;28.63;;
40955;SDS011;26687;48.254;11.454;2022-12-18T00:08:45;35.55;;;27.95;;
40955;SDS011;26687;48.254;11.454;2022-12-18T00:11:45;34.40;;;28.00;;
40955;SDS011;26687;48.254;11.454;2022-12-18T00:14:45;33.65;;;27.40;;
40955;SDS011;26687;48.254;11.454;2022-12-18T00:17:46;31.73;;;26.95;;
40955;SDS011;26687;48.254;11.454;2022-12-18T00:20:46;30.08;;;25.38;;
40955;SDS011;26687;48.254;11.454;2022-12-18T00:23:46;31.15;;;26.65;;
40955;SDS011;26687;48.254;11.454;2022-12-18T00:26:47;29.48;;;24.95;;
40955;SDS011;26687;48.254;11.454;2022-12-18T00:29:48;28.15;;;24.17;;
40955;SDS011;26687;48.254;11.454;2022-12-18T00:32:48;29.15;;;25.00;;
40955;SDS011;26687;48.254;11.454;2022-12-18T00:35:48;26.48;;;22.67;;
40955;SDS011;26687;48.254;11.454;2022-12-18T00:38:49;23.60;;;20.58;;
40955;SDS011;26687;48.254;11.454;2022-12-18T00:41:49;23.17;;;20.67;;
40955;SDS011;26687;48.254;11.454;2022-12-18T00:45:08;23.73;;;20.52;;
40955;SDS011;26687;48.254;11.454;2022-12-18T00:48:08;20.92;;;18.73;;
40955;SDS011;26687;48.254;11.454;2022-12-18T00:51:08;21.42;;;19.13;;
40955;SDS011;26687;48.254;11.454;2022-12-18T00:54:08;20.40;;;18.23;;
40955;SDS011;26687;48.254;11.454;2022-12-18T00:57:09;21.88;;;18.95;;
40955;SDS011;26687;48.254;11.454;2022-12-18T01:00:13;23.75;;;19.75;;
40955;SDS011;26687;48.254;11.454;2022-12-18T01:03:13;21.38;;;18.83;;
40955;SDS011;26687;48.254;11.454;2022-12-18T01:06:14;22.48;;;19.65;;
40955;SDS011;26687;48.254;11.454;2022-12-18T01:09:14;21.48;;;19.17;;
40955;SDS011;26687;48.254;11.454;2022-12-18T01:12:14;23.70;;;19.63;;
40955;SDS011;26687;48.254;11.454;2022-12-18T01:15:15;21.70;;;18.57;;
40955;SDS011;26687;48.254;11.454;2022-12-18T01:18:15;21.15;;;18.13;;
40955;SDS011;26687;48.254;11.454;2022-12-18T01:21:16;23.33;;;19.65;;
40955;SDS011;26687;48.254;11.454;2022-12-18T01:24:16;20.88;;;18.20;;
40955;SDS011;26687;48.254;11.454;2022-12-18T01:27:16;24.50;;;19.75;;
40955;SDS011;26687;48.254;11.454;2022-12-18T01:30:17;19.75;;;17.30;;
40955;SDS011;26687;48.254;11.454;2022-12-18T01:33:17;23.60;;;20.17;;
40955;SDS011;26687;48.254;11.454;2022-12-18T01:36:21;20.80;;;18.33;;
40955;SDS011;26687;48.254;11.454;2022-12-18T01:39:21;22.88;;;20.40;;
40955;SDS011;26687;48.254;11.454;2022-12-18T01:42:22;23.90;;;19.40;;
40955;SDS011;26687;48.254;11.454;2022-12-18T01:45:23;26.73;;;21.37;;
40955;SDS011;26687;48.254;11.454;2022-12-18T01:48:24;23.80;;;20.65;;
40955;SDS011;26687;48.254;11.454;2022-12-18T01:51:25;24.85;;;21.50;;
40955;SDS011;26687;48.254;11.454;2022-12-18T01:54:26;26.63;;;22.05;;
40955;SDS011;26687;48.254;11.454;2022-12-18T01:57:27;26.73;;;21.67;;
40955;SDS011;26687;48.254;11.454;2022-12-18T02:00:28;25.30;;;21.45;;
40955;SDS011;26687;48.254;11.454;2022-12-18T02:03:28;25.35;;;21.52;;
40955;SDS011;26687;48.254;11.454;2022-12-18T02:06:29;25.30;;;21.57;;
40955;SDS011;26687;48.254;11.454;2022-12-18T02:09:34;26.70;;;21.75;;
40955;SDS011;26687;48.254;11.454;2022-12-18T02:12:50;27.10;;;22.45;;
40955;SDS011;26687;48.254;11.454;2022-12-18T02:19:21;24.13;;;20.65;;
40955;SDS011;26687;48.254;11.454;2022-12-18T02:28:55;23.23;;;20.27;;
40955;SDS011;26687;48.254;11.454;2022-12-18T02:31:57;23.88;;;19.67;;
40955;SDS011;26687;48.254;11.454;2022-12-18T02:34:58;21.13;;;18.90;;
40955;SDS011;26687;48.254;11.454;2022-12-18T02:37:59;23.48;;;20.08;;
40955;SDS011;26687;48.254;11.454;2022-12-18T02:41:01;24.13;;;20.60;;
40955;SDS011;26687;48.254;11.454;2022-12-18T02:44:06;24.77;;;21.80;;
40955;SDS011;26687;48.254;11.454;2022-12-18T02:47:08;23.13;;;20.05;;
40955;SDS011;26687;48.254;11.454;2022-12-18T02:50:21;24.03;;;21.33;;
40955;SDS011;26687;48.254;11.454;2022-12-18T02:53:24;24.65;;;21.52;;
40955;SDS011;26687;48.254;11.454;2022-12-18T02:56:38;25.70;;;21.10;;
40955;SDS011;26687;48.254;11.454;2022-12-18T02:59:41;25.10;;;19.90;;
40955;SDS011;26687;48.254;11.454;2022-12-18T03:06:05;25.70;;;21.77;;
40955;SDS011;26687;48.254;11.454;2022-12-18T03:09:09;25.33;;;20.98;;
40955;SDS011;26687;48.254;11.454;2022-12-18T03:15:27;23.55;;;20.05;;
40955;SDS011;26687;48.254;11.454;2022-12-18T03:21:33;27.00;;;22.73;;
40955;SDS011;26687;48.254;11.454;2022-12-18T03:24:34;25.67;;;20.67;;
40955;SDS011;26687;48.254;11.454;2022-12-18T03:27:40;25.67;;;22.08;;
40955;SDS011;26687;48.254;11.454;2022-12-18T03:33:52;26.40;;;21.67;;
40955;SDS011;26687;48.254;11.454;2022-12-18T03:36:53;26.83;;;22.30;;
40955;SDS011;26687;48.254;11.454;2022-12-18T03:39:53;25.27;;;22.00;;
40955;SDS011;26687;48.254;11.454;2022-12-18T03:42:56;25.97;;;21.97;;
40955;SDS011;26687;48.254;11.454;2022-12-18T03:49:47;24.75;;;20.52;;
40955;SDS011;26687;48.254;11.454;2022-12-18T03:52:54;27.10;;;20.70;;
40955;SDS011;26687;48.254;11.454;2022-12-18T03:55:57;25.42;;;21.25;;
40955;SDS011;26687;48.254;11.454;2022-12-18T03:58:59;22.30;;;19.55;;
40955;SDS011;26687;48.254;11.454;2022-12-18T04:02:01;23.35;;;20.27;;
40955;SDS011;26687;48.254;11.454;2022-12-18T04:05:02;24.83;;;20.52;;
40955;SDS011;26687;48.254;11.454;2022-12-18T04:08:02;25.30;;;20.88;;
40955;SDS011;26687;48.254;11.454;2022-12-18T04:11:03;22.67;;;20.13;;
40955;SDS011;26687;48.254;11.454;2022-12-18T04:14:03;22.42;;;20.02;;
40955;SDS011;26687;48.254;11.454;2022-12-18T04:17:04;25.58;;;21.00;;
40955;SDS011;26687;48.254;11.454;2022-12-18T04:20:04;23.67;;;20.20;;
40955;SDS011;26687;48.254;11.454;2022-12-18T04:23:04;24.38;;;19.63;;
40955;SDS011;26687;48.254;11.454;2022-12-18T04:26:05;26.17;;;20.93;;
40955;SDS011;26687;48.254;11.454;2022-12-18T04:29:05;25.42;;;21.42;;
40955;SDS011;26687;48.254;11.454;2022-12-18T04:32:05;24.83;;;20.50;;
40955;SDS011;26687;48.254;11.454;2022-12-18T04:35:05;24.10;;;20.77;;
40955;SDS011;26687;48.254;11.454;2022-12-18T04:38:10;25.52;;;20.70;;
40955;SDS011;26687;48.254;11.454;2022-12-18T04:41:10;26.63;;;21.13;;
40955;SDS011;26687;48.254;11.454;2022-12-18T04:44:10;24.83;;;19.80;;
40955;SDS011;26687;48.254;11.454;2022-12-18T04:47:10;24.77;;;20.90;;
40955;SDS011;26687;48.254;11.454;2022-12-18T04:50:11;24.52;;;20.75;;
40955;SDS011;26687;48.254;11.454;2022-12-18T04:53:11;22.42;;;18.98;;
40955;SDS011;26687;48.254;11.454;2022-12-18T04:56:12;22.00;;;19.23;;
40955;SDS011;26687;48.254;11.454;2022-12-18T04:59:12;22.33;;;19.40;;
40955;SDS011;26687;48.254;11.454;2022-12-18T05:02:13;24.67;;;20.90;;
40955;SDS011;26687;48.254;11.454;2022-12-18T05:05:13;23.25;;;19.63;;
40955;SDS011;26687;48.254;11.454;2022-12-18T05:08:13;23.13;;;20.03;;
40955;SDS011;26687;48.254;11.454;2022-12-18T05:11:14;21.35;;;18.52;;
40955;SDS011;26687;48.254;11.454;2022-12-18T05:14:15;20.85;;;18.02;;
40955;SDS011;26687;48.254;11.454;2022-12-18T05:17:15;22.20;;;18.50;;
40955;SDS011;26687;48.254;11.454;2022-12-18T05:20:16;21.52;;;17.48;;
40955;SDS011;26687;48.254;11.454;2022-12-18T05:23:16;19.63;;;17.52;;
40955;SDS011;26687;48.254;11.454;2022-12-18T05:26:17;19.80;;;17.63;;
40955;SDS011;26687;48.254;11.454;2022-12-18T05:29:17;19.92;;;17.52;;
40955;SDS011;26687;48.254;11.454;2022-12-18T05:32:18;19.67;;;16.73;;
40955;SDS011;26687;48.254;11.454;2022-12-18T05:35:18;20.17;;;17.63;;
40955;SDS011;26687;48.254;11.454;2022-12-18T05:38:19;19.63;;;16.15;;
40955;SDS011;26687;48.254;11.454;2022-12-18T05:41:19;18.92;;;16.48;;
40955;SDS011;26687;48.254;11.454;2022-12-18T05:44:19;18.30;;;16.23;;
40955;SDS011;26687;48.254;11.454;2022-12-18T05:47:19;20.33;;;17.33;;
40955;SDS011;26687;48.254;11.454;2022-12-18T05:50:19;19.55;;;17.38;;
40955;SDS011;26687;48.254;11.454;2022-12-18T05:53:20;18.60;;;16.50;;
40955;SDS011;26687;48.254;11.454;2022-12-18T05:56:21;19.27;;;16.58;;
40955;SDS011;26687;48.254;11.454;2022-12-18T05:59:21;19.90;;;17.05;;
40955;SDS011;26687;48.254;11.454;2022-12-18T06:02:22;18.42;;;16.08;;
40955;SDS011;26687;48.254;11.454;2022-12-18T06:05:22;20.48;;;17.45;;
40955;SDS011;26687;48.254;11.454;2022-12-18T06:08:22;18.90;;;15.85;;
40955;SDS011;26687;48.254;11.454;2022-12-18T06:11:23;19.30;;;15.60;;
40955;SDS011;26687;48.254;11.454;2022-12-18T06:14:24;18.90;;;16.40;;
40955;SDS011;26687;48.254;11.454;2022-12-18T06:17:27;18.15;;;16.00;;
40955;SDS011;26687;48.254;11.454;2022-12-18T06:20:27;18.05;;;15.73;;
40955;SDS011;26687;48.254;11.454;2022-12-18T06:23:27;19.02;;;15.20;;
40955;SDS011;26687;48.254;11.454;2022-12-18T06:26:28;18.98;;;16.15;;
40955;SDS011;26687;48.254;11.454;2022-12-18T06:29:28;20.85;;;17.50;;
40955;SDS011;26687;48.254;11.454;2022-12-18T06:32:28;20.25;;;17.05;;
40955;SDS011;26687;48.254;11.454;2022-12-18T06:35:28;20.10;;;17.43;;
40955;SDS011;26687;48.254;11.454;2022-12-18T06:38:28;20.27;;;16.67;;
40955;SDS011;26687;48.254;11.454;2022-12-18T06:41:29;20.03;;;16.97;;
40955;SDS011;26687;48.254;11.454;2022-12-18T06:44:29;19.73;;;16.77;;
40955;SDS011;26687;48.254;11.454;2022-12-18T06:47:29;19.05;;;16.48;;
40955;SDS011;26687;48.254;11.454;2022-12-18T06:50:29;21.00;;;16.77;;
40955;SDS011;26687;48.254;11.454;2022-12-18T06:53:29;20.20;;;17.70;;
40955;SDS011;26687;48.254;11.454;2022-12-18T06:56:30;20.97;;;18.00;;
40955;SDS011;26687;48.254;11.454;2022-12-18T06:59:30;20.70;;;17.67;;
40955;SDS011;26687;48.254;11.454;2022-12-18T07:02:30;20.50;;;18.30;;
40955;SDS011;26687;48.254;11.454;2022-12-18T07:05:30;22.02;;;18.50;;
40955;SDS011;26687;48.254;11.454;2022-12-18T07:08:31;22.08;;;19.23;;
40955;SDS011;26687;48.254;11.454;2022-12-18T07:11:32;20.83;;;18.08;;
40955;SDS011;26687;48.254;11.454;2022-12-18T07:14:32;19.88;;;17.05;;
40955;SDS011;26687;48.254;11.454;2022-12-18T07:17:32;20.38;;;17.17;;
40955;SDS011;26687;48.254;11.454;2022-12-18T07:20:33;19.53;;;17.23;;
40955;SDS011;26687;48.254;11.454;2022-12-18T07:23:33;19.02;;;16.60;;
40955;SDS011;26687;48.254;11.454;2022-12-18T07:26:34;18.70;;;16.67;;
40955;SDS011;26687;48.254;11.454;2022-12-18T07:29:34;19.40;;;16.77;;
40955;SDS011;26687;48.254;11.454;2022-12-18T07:32:34;23.35;;;18.40;;
40955;SDS011;26687;48.254;11.454;2022-12-18T07:35:34;19.10;;;16.77;;
40955;SDS011;26687;48.254;11.454;2022-12-18T07:38:36;20.02;;;16.98;;
40955;SDS011;26687;48.254;11.454;2022-12-18T07:41:36;20.08;;;17.38;;
40955;SDS011;26687;48.254;11.454;2022-12-18T07:44:36;19.47;;;17.33;;
40955;SDS011;26687;48.254;11.454;2022-12-18T07:47:37;20.50;;;18.05;;
40955;SDS011;26687;48.254;11.454;2022-12-18T07:50:37;22.30;;;18.23;;
40955;SDS011;26687;48.254;11.454;2022-12-18T07:53:38;22.95;;;19.98;;
40955;SDS011;26687;48.254;11.454;2022-12-18T07:56:38;23.48;;;19.65;;
40955;SDS011;26687;48.254;11.454;2022-12-18T07:59:38;24.40;;;20.55;;
40955;SDS011;26687;48.254;11.454;2022-12-18T08:02:38;24.20;;;19.67;;
40955;SDS011;26687;48.254;11.454;2022-12-18T08:05:39;21.77;;;18.42;;
40955;SDS011;26687;48.254;11.454;2022-12-18T08:08:39;24.38;;;18.45;;
40955;SDS011;26687;48.254;11.454;2022-12-18T08:11:41;23.23;;;18.80;;
40955;SDS011;26687;48.254;11.454;2022-12-18T08:14:41;23.15;;;19.48;;
40955;SDS011;26687;48.254;11.454;2022-12-18T08:17:41;29.88;;;24.23;;
40955;SDS011;26687;48.254;11.454;2022-12-18T08:20:41;33.00;;;25.37;;
40955;SDS011;26687;48.254;11.454;2022-12-18T08:23:42;27.98;;;22.20;;
40955;SDS011;26687;48.254;11.454;2022-12-18T08:26:42;29.80;;;25.42;;
40955;SDS011;26687;48.254;11.454;2022-12-18T08:29:42;26.37;;;21.27;;
40955;SDS011;26687;48.254;11.454;2022-12-18T08:32:42;19.02;;;16.83;;
40955;SDS011;26687;48.254;11.454;2022-12-18T08:35:43;23.15;;;18.88;;
40955;SDS011;26687;48.254;11.454;2022-12-18T08:38:43;21.10;;;17.85;;
40955;SDS011;26687;48.254;11.454;2022-12-18T08:41:43;19.65;;;17.08;;
40955;SDS011;26687;48.254;11.454;2022-12-18T08:45:03;24.75;;;16.90;;
40955;SDS011;26687;48.254;11.454;2022-12-18T08:48:04;21.52;;;18.10;;
40955;SDS011;26687;48.254;11.454;2022-12-18T08:51:04;20.73;;;17.17;;
40955;SDS011;26687;48.254;11.454;2022-12-18T08:54:05;19.05;;;15.85;;
40955;SDS011;26687;48.254;11.454;2022-12-18T08:57:05;17.60;;;15.10;;
40955;SDS011;26687;48.254;11.454;2022-12-18T09:00:06;18.45;;;15.65;;
40955;SDS011;26687;48.254;11.454;2022-12-18T09:03:13;21.48;;;17.45;;
40955;SDS011;26687;48.254;11.454;2022-12-18T09:06:14;18.75;;;16.15;;
40955;SDS011;26687;48.254;11.454;2022-12-18T09:09:15;18.95;;;16.52;;
40955;SDS011;26687;48.254;11.454;2022-12-18T09:12:15;20.00;;;16.93;;
40955;SDS011;26687;48.254;11.454;2022-12-18T09:15:16;19.17;;;17.00;;
40955;SDS011;26687;48.254;11.454;2022-12-18T09:18:17;20.92;;;17.63;;
40955;SDS011;26687;48.254;11.454;2022-12-18T09:21:18;20.33;;;16.40;;
40955;SDS011;26687;48.254;11.454;2022-12-18T09:24:19;18.65;;;15.90;;
40955;SDS011;26687;48.254;11.454;2022-12-18T09:27:19;18.98;;;15.63;;
40955;SDS011;26687;48.254;11.454;2022-12-18T09:30:19;20.07;;;16.17;;
40955;SDS011;26687;48.254;11.454;2022-12-18T09:33:20;19.58;;;16.35;;
40955;SDS011;26687;48.254;11.454;2022-12-18T09:36:20;19.30;;;16.55;;
40955;SDS011;26687;48.254;11.454;2022-12-18T09:39:20;18.25;;;16.05;;
40955;SDS011;26687;48.254;11.454;2022-12-18T09:42:21;17.60;;;14.70;;
40955;SDS011;26687;48.254;11.454;2022-12-18T09:45:22;18.92;;;15.93;;
40955;SDS011;26687;48.254;11.454;2022-12-18T09:48:26;19.40;;;16.33;;
40955;SDS011;26687;48.254;11.454;2022-12-18T09:51:29;20.85;;;16.27;;
40955;SDS011;26687;48.254;11.454;2022-12-18T09:54:32;19.17;;;16.77;;
40955;SDS011;26687;48.254;11.454;2022-12-18T09:57:33;19.13;;;16.70;;
40955;SDS011;26687;48.254;11.454;2022-12-18T10:00:35;22.63;;;17.88;;
40955;SDS011;26687;48.254;11.454;2022-12-18T10:03:36;19.10;;;15.77;;
40955;SDS011;26687;48.254;11.454;2022-12-18T10:06:43;18.90;;;15.93;;
40955;SDS011;26687;48.254;11.454;2022-12-18T10:09:51;20.15;;;15.43;;
40955;SDS011;26687;48.254;11.454;2022-12-18T10:19:10;18.73;;;14.63;;
40955;SDS011;26687;48.254;11.454;2022-12-18T10:22:19;20.17;;;14.95;;
40955;SDS011;26687;48.254;11.454;2022-12-18T10:25:33;22.60;;;17.25;;
40955;SDS011;26687;48.254;11.454;2022-12-18T10:28:36;20.40;;;15.73;;
40955;SDS011;26687;48.254;11.454;2022-12-18T10:31:36;19.42;;;16.38;;
40955;SDS011;26687;48.254;11.454;2022-12-18T10:34:37;18.88;;;15.95;;
40955;SDS011;26687;48.254;11.454;2022-12-18T10:37:37;18.70;;;15.40;;
40955;SDS011;26687;48.254;11.454;2022-12-18T10:41:09;19.33;;;15.55;;
40955;SDS011;26687;48.254;11.454;2022-12-18T10:44:25;19.60;;;16.00;;
40955;SDS011;26687;48.254;11.454;2022-12-18T10:47:26;20.13;;;16.10;;
40955;SDS011;26687;48.254;11.454;2022-12-18T10:53:27;20.33;;;16.33;;
40955;SDS011;26687;48.254;11.454;2022-12-18T10:56:29;19.80;;;15.55;;
40955;SDS011;26687;48.254;11.454;2022-12-18T10:59:29;19.05;;;15.60;;
40955;SDS011;26687;48.254;11.454;2022-12-18T11:02:43;19.75;;;15.60;;
40955;SDS011;26687;48.254;11.454;2022-12-18T11:05:43;21.50;;;16.60;;
40955;SDS011;26687;48.254;11.454;2022-12-18T11:08:44;23.17;;;18.27;;
40955;SDS011;26687;48.254;11.454;2022-12-18T11:11:57;19.70;;;15.75;;
40955;SDS011;26687;48.254;11.454;2022-12-18T11:14:59;20.33;;;16.10;;
40955;SDS011;26687;48.254;11.454;2022-12-18T11:18:00;21.33;;;16.35;;
40955;SDS011;26687;48.254;11.454;2022-12-18T11:24:03;23.95;;;19.35;;
40955;SDS011;26687;48.254;11.454;2022-12-18T11:27:04;27.02;;;22.13;;
40955;SDS011;26687;48.254;11.454;2022-12-18T11:33:20;20.08;;;16.40;;
40955;SDS011;26687;48.254;11.454;2022-12-18T11:36:21;20.58;;;16.50;;
40955;SDS011;26687;48.254;11.454;2022-12-18T11:42:32;21.52;;;16.25;;
40955;SDS011;26687;48.254;11.454;2022-12-18T11:45:36;20.00;;;16.08;;
40955;SDS011;26687;48.254;11.454;2022-12-18T11:48:42;19.13;;;15.35;;
40955;SDS011;26687;48.254;11.454;2022-12-18T11:54:51;18.23;;;14.48;;
40955;SDS011;26687;48.254;11.454;2022-12-18T12:04:17;18.88;;;15.27;;
40955;SDS011;26687;48.254;11.454;2022-12-18T12:19:36;17.37;;;14.23;;
40955;SDS011;26687;48.254;11.454;2022-12-18T12:31:55;15.65;;;12.57;;
40955;SDS011;26687;48.254;11.454;2022-12-18T12:35:14;16.45;;;14.02;;
40955;SDS011;26687;48.254;11.454;2022-12-18T12:38:21;17.52;;;14.82;;
40955;SDS011;26687;48.254;11.454;2022-12-18T12:41:23;16.75;;;14.35;;
40955;SDS011;26687;48.254;11.454;2022-12-18T12:44:44;16.38;;;13.35;;
40955;SDS011;26687;48.254;11.454;2022-12-18T12:47:46;15.48;;;13.23;;
40955;SDS011;26687;48.254;11.454;2022-12-18T12:50:48;17.48;;;13.50;;
40955;SDS011;26687;48.254;11.454;2022-12-18T12:53:49;17.85;;;15.10;;
40955;SDS011;26687;48.254;11.454;2022-12-18T12:59:52;17.83;;;14.45;;
40955;SDS011;26687;48.254;11.454;2022-12-18T13:06:19;16.02;;;13.73;;
40955;SDS011;26687;48.254;11.454;2022-12-18T13:09:23;18.58;;;16.05;;
40955;SDS011;26687;48.254;11.454;2022-12-18T13:12:23;15.45;;;12.93;;
40955;SDS011;26687;48.254;11.454;2022-12-18T13:15:43;16.30;;;12.88;;
40955;SDS011;26687;48.254;11.454;2022-12-18T13:18:51;16.30;;;13.50;;
40955;SDS011;26687;48.254;11.454;2022-12-18T13:21:53;19.70;;;16.15;;
40955;SDS011;26687;48.254;11.454;2022-12-18T13:24:53;18.75;;;14.77;;
40955;SDS011;26687;48.254;11.454;2022-12-18T13:27:59;17.52;;;14.00;;
40955;SDS011;26687;48.254;11.454;2022-12-18T13:31:00;20.42;;;18.00;;
40955;SDS011;26687;48.254;11.454;2022-12-18T13:34:15;19.15;;;15.18;;
40955;SDS011;26687;48.254;11.454;2022-12-18T13:37:58;21.48;;;16.52;;
40955;SDS011;26687;48.254;11.454;2022-12-18T13:43:53;22.33;;;16.83;;
40955;SDS011;26687;48.254;11.454;2022-12-18T13:46:54;20.95;;;15.85;;
40955;SDS011;26687;48.254;11.454;2022-12-18T13:49:54;18.25;;;14.50;;
40955;SDS011;26687;48.254;11.454;2022-12-18T13:52:54;21.35;;;16.50;;
40955;SDS011;26687;48.254;11.454;2022-12-18T13:55:55;18.67;;;15.33;;
40955;SDS011;26687;48.254;11.454;2022-12-18T13:59:05;18.50;;;15.30;;
40955;SDS011;26687;48.254;11.454;2022-12-18T14:02:16;19.95;;;15.80;;
40955;SDS011;26687;48.254;11.454;2022-12-18T14:05:50;19.45;;;15.63;;
40955;SDS011;26687;48.254;11.454;2022-12-18T14:08:43;17.95;;;15.05;;
40955;SDS011;26687;48.254;11.454;2022-12-18T14:11:47;21.83;;;16.90;;
40955;SDS011;26687;48.254;11.454;2022-12-18T14:14:48;20.48;;;16.52;;
40955;SDS011;26687;48.254;11.454;2022-12-18T14:17:51;18.77;;;15.43;;
40955;SDS011;26687;48.254;11.454;2022-12-18T14:20:53;39.88;;;32.38;;
40955;SDS011;26687;48.254;11.454;2022-12-18T14:24:13;38.28;;;28.98;;
40955;SDS011;26687;48.254;11.454;2022-12-18T14:27:20;49.95;;;36.85;;
40955;SDS011;26687;48.254;11.454;2022-12-18T14:30:38;27.73;;;24.63;;
40955;SDS011;26687;48.254;11.454;2022-12-18T14:33:39;21.45;;;19.15;;
40955;SDS011;26687;48.254;11.454;2022-12-18T14:36:39;18.58;;;16.60;;
40955;SDS011;26687;48.254;11.454;2022-12-18T14:39:39;18.08;;;16.17;;
40955;SDS011;26687;48.254;11.454;2022-12-18T14:42:40;25.87;;;23.07;;
40955;SDS011;26687;48.254;11.454;2022-12-18T14:48:44;19.80;;;17.27;;
40955;SDS011;26687;48.254;11.454;2022-12-18T14:51:56;22.88;;;19.00;;
40955;SDS011;26687;48.254;11.454;2022-12-18T14:54:57;23.92;;;19.15;;
40955;SDS011;26687;48.254;11.454;2022-12-18T14:57:57;19.63;;;15.55;;
40955;SDS011;26687;48.254;11.454;2022-12-18T15:00:57;17.70;;;14.23;;
40955;SDS011;26687;48.254;11.454;2022-12-18T15:03:58;17.98;;;15.65;;
40955;SDS011;26687;48.254;11.454;2022-12-18T15:07:02;21.30;;;17.67;;
40955;SDS011;26687;48.254;11.454;2022-12-18T15:10:13;21.13;;;17.77;;
40955;SDS011;26687;48.254;11.454;2022-12-18T15:13:20;28.30;;;22.02;;
40955;SDS011;26687;48.254;11.454;2022-12-18T15:16:21;26.30;;;22.13;;
40955;SDS011;26687;48.254;11.454;2022-12-18T15:19:22;19.37;;;17.17;;
40955;SDS011;26687;48.254;11.454;2022-12-18T15:22:26;18.95;;;16.95;;
40955;SDS011;26687;48.254;11.454;2022-12-18T15:25:32;17.50;;;15.70;;
40955;SDS011;26687;48.254;11.454;2022-12-18T15:31:34;24.80;;;21.95;;
40955;SDS011;26687;48.254;11.454;2022-12-18T15:34:37;22.85;;;20.45;;
40955;SDS011;26687;48.254;11.454;2022-12-18T15:37:37;20.05;;;17.85;;
40955;SDS011;26687;48.254;11.454;2022-12-18T15:40:38;16.90;;;15.10;;
40955;SDS011;26687;48.254;11.454;2022-12-18T15:43:38;24.63;;;21.80;;
40955;SDS011;26687;48.254;11.454;2022-12-18T15:46:38;20.08;;;17.88;;
40955;SDS011;26687;48.254;11.454;2022-12-18T15:49:39;20.48;;;17.00;;
40955;SDS011;26687;48.254;11.454;2022-12-18T15:52:40;20.67;;;17.08;;
40955;SDS011;26687;48.254;11.454;2022-12-18T15:55:41;19.00;;;15.77;;
40955;SDS011;26687;48.254;11.454;2022-12-18T15:59:00;18.77;;;15.73;;
40955;SDS011;26687;48.254;11.454;2022-12-18T16:02:00;22.35;;;18.23;;
40955;SDS011;26687;48.254;11.454;2022-12-18T16:05:01;21.98;;;19.05;;
40955;SDS011;26687;48.254;11.454;2022-12-18T16:08:01;29.00;;;23.67;;
40955;SDS011;26687;48.254;11.454;2022-12-18T16:11:01;26.48;;;22.63;;
40955;SDS011;26687;48.254;11.454;2022-12-18T16:14:02;23.33;;;20.10;;
40955;SDS011;26687;48.254;11.454;2022-12-18T16:17:03;21.80;;;18.73;;
40955;SDS011;26687;48.254;11.454;2022-12-18T16:20:03;19.20;;;16.88;;
40955;SDS011;26687;48.254;11.454;2022-12-18T16:23:04;21.70;;;18.58;;
40955;SDS011;26687;48.254;11.454;2022-12-18T16:26:04;24.30;;;19.90;;
40955;SDS011;26687;48.254;11.454;2022-12-18T16:29:04;22.70;;;18.80;;
40955;SDS011;26687;48.254;11.454;2022-12-18T16:32:04;24.07;;;19.97;;
40955;SDS011;26687;48.254;11.454;2022-12-18T16:35:05;27.67;;;22.00;;
40955;SDS011;26687;48.254;11.454;2022-12-18T16:38:05;27.58;;;21.83;;
40955;SDS011;26687;48.254;11.454;2022-12-18T16:41:17;24.80;;;20.00;;
40955;SDS011;26687;48.254;11.454;2022-12-18T16:44:33;35.85;;;24.88;;
40955;SDS011;26687;48.254;11.454;2022-12-18T16:47:33;25.17;;;19.85;;
40955;SDS011;26687;48.254;11.454;2022-12-18T16:50:34;27.30;;;20.58;;
40955;SDS011;26687;48.254;11.454;2022-12-18T16:53:34;21.92;;;19.55;;
40955;SDS011;26687;48.254;11.454;2022-12-18T16:56:34;28.95;;;23.17;;
40955;SDS011;26687;48.254;11.454;2022-12-18T16:59:34;21.10;;;18.70;;
40955;SDS011;26687;48.254;11.454;2022-12-18T17:02:34;21.75;;;18.77;;
40955;SDS011;26687;48.254;11.454;2022-12-18T17:05:35;21.90;;;19.55;;
40955;SDS011;26687;48.254;11.454;2022-12-18T17:08:35;23.70;;;19.67;;
40955;SDS011;26687;48.254;11.454;2022-12-18T17:11:35;26.70;;;20.33;;
40955;SDS011;26687;48.254;11.454;2022-12-18T17:14:35;22.85;;;19.85;;
40955;SDS011;26687;48.254;11.454;2022-12-18T17:17:35;24.80;;;20.20;;
40955;SDS011;26687;48.254;11.454;2022-12-18T17:20:36;27.15;;;21.50;;
40955;SDS011;26687;48.254;11.454;2022-12-18T17:23:36;21.98;;;17.58;;
40955;SDS011;26687;48.254;11.454;2022-12-18T17:26:36;18.60;;;16.60;;
40955;SDS011;26687;48.254;11.454;2022-12-18T17:29:36;21.33;;;17.80;;
40955;SDS011;26687;48.254;11.454;2022-12-18T17:32:37;21.50;;;17.70;;
40955;SDS011;26687;48.254;11.454;2022-12-18T17:35:37;20.38;;;17.92;;
40955;SDS011;26687;48.254;11.454;2022-12-18T17:38:37;22.63;;;19.07;;
40955;SDS011;26687;48.254;11.454;2022-12-18T17:41:37;25.80;;;21.30;;
40955;SDS011;26687;48.254;11.454;2022-12-18T17:44:38;22.13;;;19.00;;
40955;SDS011;26687;48.254;11.454;2022-12-18T17:47:38;21.75;;;19.42;;
40955;SDS011;26687;48.254;11.454;2022-12-18T17:50:38;22.40;;;18.95;;
40955;SDS011;26687;48.254;11.454;2022-12-18T17:53:39;22.33;;;18.77;;
40955;SDS011;26687;48.254;11.454;2022-12-18T17:56:39;22.27;;;18.90;;
40955;SDS011;26687;48.254;11.454;2022-12-18T17:59:39;20.97;;;17.67;;
40955;SDS011;26687;48.254;11.454;2022-12-18T18:02:39;20.67;;;18.47;;
40955;SDS011;26687;48.254;11.454;2022-12-18T18:05:40;23.33;;;19.83;;
40955;SDS011;26687;48.254;11.454;2022-12-18T18:08:40;22.17;;;19.63;;
40955;SDS011;26687;48.254;11.454;2022-12-18T18:11:40;22.63;;;19.23;;
40955;SDS011;26687;48.254;11.454;2022-12-18T18:14:59;21.08;;;18.77;;
40955;SDS011;26687;48.254;11.454;2022-12-18T18:17:59;22.90;;;18.90;;
40955;SDS011;26687;48.254;11.454;2022-12-18T18:21:06;23.13;;;19.45;;
40955;SDS011;26687;48.254;11.454;2022-12-18T18:24:07;22.70;;;19.42;;
40955;SDS011;26687;48.254;11.454;2022-12-18T18:27:08;21.52;;;19.23;;
40955;SDS011;26687;48.254;11.454;2022-12-18T18:30:08;23.50;;;21.00;;
40955;SDS011;26687;48.254;11.454;2022-12-18T18:33:09;23.33;;;19.50;;
40955;SDS011;26687;48.254;11.454;2022-12-18T18:36:09;25.93;;;20.40;;
40955;SDS011;26687;48.254;11.454;2022-12-18T18:39:10;27.48;;;22.45;;
40955;SDS011;26687;48.254;11.454;2022-12-18T18:42:10;28.48;;;22.20;;
40955;SDS011;26687;48.254;11.454;2022-12-18T18:45:10;23.23;;;19.67;;
40955;SDS011;26687;48.254;11.454;2022-12-18T18:48:11;23.65;;;19.75;;
40955;SDS011;26687;48.254;11.454;2022-12-18T18:51:12;25.27;;;20.13;;
40955;SDS011;26687;48.254;11.454;2022-12-18T18:54:12;24.05;;;19.75;;
40955;SDS011;26687;48.254;11.454;2022-12-18T18:57:12;24.17;;;19.87;;
40955;SDS011;26687;48.254;11.454;2022-12-18T19:00:13;23.77;;;20.00;;
40955;SDS011;26687;48.254;11.454;2022-12-18T19:03:14;23.25;;;19.42;;